createdAt,value
2022-08-30T00:01:24.089Z,1.70
2022-08-30T00:03:52.220Z,2.00
2022-08-30T00:06:19.549Z,1.67
2022-08-30T00:08:47.030Z,2.00
2022-08-30T00:11:17.459Z,2.05
2022-08-30T00:13:46.091Z,1.60
2022-08-30T00:16:13.776Z,2.03
2022-08-30T00:18:40.963Z,2.25
2022-08-30T00:21:08.316Z,2.10
2022-08-30T00:23:35.460Z,1.90
2022-08-30T00:26:02.667Z,1.70
2022-08-30T00:28:30.811Z,1.80
2022-08-30T00:30:57.542Z,1.98
2022-08-30T00:33:24.207Z,1.80
2022-08-30T00:35:50.833Z,2.00
2022-08-30T00:38:17.368Z,1.80
2022-08-30T00:40:45.239Z,1.92
2022-08-30T00:43:16.352Z,1.70
2022-08-30T00:45:45.516Z,1.88
2022-08-30T00:48:12.208Z,1.95
2022-08-30T00:50:41.982Z,2.08
2022-08-30T00:53:12.854Z,2.05
2022-08-30T00:55:42.045Z,1.90
2022-08-30T00:58:14.984Z,2.10
2022-08-30T01:00:41.658Z,1.80
2022-08-30T01:03:09.569Z,1.95
2022-08-30T01:05:38.343Z,1.92
2022-08-30T01:08:06.422Z,1.73
2022-08-30T01:10:35.102Z,1.92
2022-08-30T01:13:01.928Z,2.00
2022-08-30T01:15:29.071Z,2.10
2022-08-30T01:17:56.834Z,1.95
2022-08-30T01:20:33.210Z,1.67
2022-08-30T01:23:08.328Z,1.77
2022-08-30T01:25:36.518Z,1.75
2022-08-30T01:28:06.360Z,1.63
2022-08-30T01:30:33.655Z,1.60
2022-08-30T01:33:03.851Z,2.05
2022-08-30T01:35:35.371Z,1.90
2022-08-30T01:38:03.621Z,1.70
2022-08-30T01:40:30.411Z,1.98
2022-08-30T01:42:57.134Z,1.98
2022-08-30T01:45:23.967Z,1.80
2022-08-30T01:47:50.566Z,1.80
2022-08-30T01:50:17.431Z,1.80
2022-08-30T01:52:44.032Z,1.60
2022-08-30T01:55:12.083Z,2.00
2022-08-30T01:57:38.984Z,1.77
2022-08-30T02:00:08.029Z,1.77
2022-08-30T02:02:34.915Z,2.00
2022-08-30T02:05:02.335Z,1.92
2022-08-30T02:07:28.847Z,1.75
2022-08-30T02:09:55.349Z,1.73
2022-08-30T02:12:23.366Z,1.92
2022-08-30T02:14:49.893Z,1.70
2022-08-30T02:17:16.708Z,1.65
2022-08-30T02:19:43.817Z,2.10
2022-08-30T02:22:10.854Z,1.85
2022-08-30T02:24:37.914Z,1.70
2022-08-30T02:27:05.464Z,1.77
2022-08-30T02:29:33.502Z,1.85
2022-08-30T02:32:00.012Z,1.80
2022-08-30T02:34:26.703Z,1.83
2022-08-30T02:36:53.285Z,1.80
2022-08-30T02:39:19.816Z,1.60
2022-08-30T02:41:46.337Z,1.98
2022-08-30T02:44:12.883Z,2.00
2022-08-30T02:46:41.080Z,1.80
2022-08-30T02:51:54.361Z,1.85
2022-08-30T02:54:20.912Z,1.70
2022-08-30T02:56:48.166Z,1.70
2022-08-30T02:59:15.456Z,2.05
2022-08-30T03:01:43.521Z,1.90
2022-08-30T03:04:10.652Z,1.95
2022-08-30T03:06:37.473Z,1.50
2022-08-30T03:09:04.446Z,1.88
2022-08-30T03:11:31.124Z,1.92
2022-08-30T03:13:57.848Z,1.80
2022-08-30T03:16:24.456Z,1.92
2022-08-30T03:18:52.343Z,2.00
2022-08-30T03:21:18.917Z,1.83
2022-08-30T03:23:46.191Z,1.85
2022-08-30T03:26:13.177Z,1.73
2022-08-30T03:28:39.995Z,1.95
2022-08-30T03:31:07.069Z,1.92
2022-08-30T03:33:33.965Z,2.10
2022-08-30T03:36:01.831Z,1.80
2022-08-30T03:38:28.543Z,1.75
2022-08-30T03:40:55.124Z,1.80
2022-08-30T03:43:21.655Z,1.90
2022-08-30T03:45:50.327Z,1.98
2022-08-30T03:48:16.879Z,1.75
2022-08-30T03:50:43.520Z,1.85
2022-08-30T03:53:11.638Z,1.80
2022-08-30T03:55:38.172Z,1.70
2022-08-30T03:58:04.785Z,1.65
2022-08-30T04:00:31.385Z,1.73
2022-08-30T04:02:57.934Z,2.17
2022-08-30T04:05:24.491Z,1.80
2022-08-30T04:07:50.999Z,1.90
2022-08-30T04:10:19.414Z,2.33
2022-08-30T04:12:49.590Z,1.70
2022-08-30T04:15:17.860Z,1.88
2022-08-30T04:17:44.475Z,2.20
2022-08-30T04:20:11.344Z,1.88
2022-08-30T04:22:38.008Z,1.92
2022-08-30T04:25:05.578Z,1.88
2022-08-30T04:27:33.528Z,1.83
2022-08-30T04:30:00.229Z,1.60
2022-08-30T04:32:26.903Z,1.80
2022-08-30T04:34:56.487Z,1.70
2022-08-30T04:37:23.035Z,1.85
2022-08-30T04:39:49.557Z,1.80
2022-08-30T04:42:16.284Z,1.70
2022-08-30T04:44:44.103Z,1.92
2022-08-30T04:47:10.653Z,1.73
2022-08-30T04:49:37.243Z,1.77
2022-08-30T04:52:04.334Z,1.80
2022-08-30T04:54:30.846Z,1.65
2022-08-30T04:56:57.498Z,1.58
2022-08-30T04:59:24.198Z,1.73
2022-08-30T05:01:52.125Z,1.80
2022-08-30T05:04:18.682Z,1.90
2022-08-30T05:06:45.256Z,1.77
2022-08-30T05:09:11.894Z,1.88
2022-08-30T05:11:38.492Z,1.88
2022-08-30T05:14:05.157Z,2.22
2022-08-30T05:16:31.726Z,1.85
2022-08-30T05:18:59.646Z,1.80
2022-08-30T05:21:27.843Z,1.98
2022-08-30T05:23:56.306Z,1.83
2022-08-30T05:26:25.640Z,1.95
2022-08-30T05:28:52.676Z,2.15
2022-08-30T05:31:23.432Z,1.88
2022-08-30T05:33:52.459Z,2.05
2022-08-30T05:36:22.379Z,1.60
2022-08-30T05:38:49.252Z,1.88
2022-08-30T05:41:16.115Z,1.95
2022-08-30T05:43:42.632Z,1.80
2022-08-30T05:46:11.407Z,2.33
2022-08-30T05:48:39.248Z,1.80
2022-08-30T05:51:08.657Z,1.83
2022-08-30T05:53:37.101Z,2.00
2022-08-30T05:56:06.951Z,1.80
2022-08-30T05:58:33.633Z,1.90
2022-08-30T06:01:00.338Z,1.83
2022-08-30T06:03:27.786Z,1.83
2022-08-30T06:05:54.597Z,1.80
2022-08-30T06:08:21.621Z,1.90
2022-08-30T06:10:49.811Z,1.75
2022-08-30T06:13:16.366Z,2.05
2022-08-30T06:15:43.080Z,1.70
2022-08-30T06:18:09.790Z,1.90
2022-08-30T06:20:39.904Z,1.80
2022-08-30T06:23:06.460Z,2.17
2022-08-30T06:25:42.058Z,2.10
2022-08-30T06:28:10.749Z,2.42
2022-08-30T06:30:39.936Z,2.65
2022-08-30T06:33:06.816Z,2.42
2022-08-30T06:35:38.278Z,2.53
2022-08-30T06:38:13.558Z,2.40
2022-08-30T06:40:40.213Z,2.42
2022-08-30T06:43:06.857Z,2.67
2022-08-30T06:45:35.401Z,2.63
2022-08-30T06:48:02.569Z,2.78
2022-08-30T06:50:29.202Z,2.70
2022-08-30T06:52:55.781Z,2.60
2022-08-30T06:55:23.663Z,2.50
2022-08-30T06:57:50.185Z,2.70
2022-08-30T07:00:17.291Z,2.78
2022-08-30T07:02:45.174Z,2.53
2022-08-30T07:05:14.265Z,2.55
2022-08-30T07:07:44.630Z,2.10
2022-08-30T07:10:11.214Z,2.75
2022-08-30T07:12:37.790Z,2.45
2022-08-30T07:15:05.336Z,2.60
2022-08-30T07:17:34.955Z,2.45
2022-08-30T07:20:04.105Z,2.47
2022-08-30T07:22:32.431Z,2.72
2022-08-30T07:24:59.085Z,2.42
2022-08-30T07:27:25.776Z,3.00
2022-08-30T07:29:52.294Z,3.10
2022-08-30T07:32:18.823Z,2.60
2022-08-30T07:34:45.397Z,2.60
2022-08-30T07:37:18.025Z,2.90
2022-08-30T07:39:47.749Z,2.80
2022-08-30T07:42:14.931Z,2.80
2022-08-30T07:44:41.454Z,2.65
2022-08-30T07:47:08.159Z,2.92
2022-08-30T07:49:34.698Z,2.55
2022-08-30T07:52:01.318Z,2.65
2022-08-30T07:54:29.364Z,2.25
2022-08-30T07:56:55.860Z,2.50
2022-08-30T07:59:22.635Z,2.55
2022-08-30T08:01:49.647Z,2.47
2022-08-30T08:04:16.233Z,2.55
2022-08-30T08:06:42.811Z,2.60
2022-08-30T08:09:09.557Z,2.42
2022-08-30T08:11:37.640Z,2.72
2022-08-30T08:14:04.765Z,2.78
2022-08-30T08:16:33.009Z,2.55
2022-08-30T08:19:00.251Z,2.28
2022-08-30T08:21:27.777Z,2.97
2022-08-30T08:23:54.444Z,2.28
2022-08-30T08:26:21.747Z,2.42
2022-08-30T08:28:49.607Z,2.50
2022-08-30T08:31:17.757Z,2.53
2022-08-30T08:33:44.885Z,2.60
2022-08-30T08:36:11.526Z,2.53
2022-08-30T08:38:38.346Z,2.58
2022-08-30T08:41:13.315Z,2.53
2022-08-30T08:43:40.902Z,2.78
2022-08-30T08:46:16.183Z,2.75
2022-08-30T08:48:59.703Z,2.65
2022-08-30T08:51:31.322Z,2.90
2022-08-30T08:54:02.493Z,2.78
2022-08-30T08:56:32.625Z,2.85
2022-08-30T08:58:59.198Z,2.58
2022-08-30T09:01:29.426Z,2.88
2022-08-30T09:03:58.049Z,2.70
2022-08-30T09:06:41.810Z,2.63
2022-08-30T09:09:12.716Z,2.58
2022-08-30T09:11:41.485Z,2.75
2022-08-30T09:14:17.067Z,2.75
2022-08-30T09:16:51.990Z,2.70
2022-08-30T09:19:30.642Z,2.40
2022-08-30T09:22:04.774Z,2.88
2022-08-30T09:24:38.268Z,2.80
2022-08-30T09:27:16.033Z,2.50
2022-08-30T09:29:54.705Z,2.50
2022-08-30T09:32:26.157Z,2.15
2022-08-30T09:34:52.731Z,2.40
2022-08-30T09:37:33.179Z,2.70
2022-08-30T09:40:00.687Z,2.63
2022-08-30T09:42:29.388Z,2.55
2022-08-30T09:44:57.173Z,2.45
2022-08-30T09:47:31.560Z,2.95
2022-08-30T09:50:05.673Z,2.90
2022-08-30T09:52:44.528Z,2.30
2022-08-30T09:55:26.667Z,2.88
2022-08-30T09:58:01.865Z,2.75
2022-08-30T10:00:31.814Z,2.30
2022-08-30T10:03:26.131Z,2.50
2022-08-30T10:06:09.017Z,2.17
2022-08-30T10:08:50.813Z,2.22
2022-08-30T10:11:25.500Z,2.40
2022-08-30T10:14:25.215Z,2.50
2022-08-30T10:17:03.053Z,2.60
2022-08-30T10:19:48.425Z,2.60
2022-08-30T10:24:49.390Z,2.78
2022-08-30T10:27:24.713Z,2.20
2022-08-30T10:29:56.923Z,2.28
2022-08-30T10:32:28.394Z,2.33
2022-08-30T10:35:04.058Z,2.22
2022-08-30T10:37:35.692Z,2.55
2022-08-30T10:40:07.120Z,2.78
2022-08-30T10:42:39.874Z,2.45
2022-08-30T10:45:13.163Z,2.50
2022-08-30T10:47:44.710Z,2.60
2022-08-30T10:50:17.366Z,2.58
2022-08-30T10:52:53.346Z,2.58
2022-08-30T10:55:24.138Z,2.60
2022-08-30T10:57:51.450Z,2.85
2022-08-30T11:00:26.320Z,2.92
2022-08-30T11:03:14.101Z,2.70
2022-08-30T11:06:02.953Z,2.70
2022-08-30T11:08:51.705Z,2.33
2022-08-30T11:11:31.535Z,2.22
2022-08-30T11:14:05.481Z,2.60
2022-08-30T11:16:37.089Z,2.58
2022-08-30T11:19:15.530Z,2.53
2022-08-30T11:21:47.954Z,2.47
2022-08-30T11:24:19.473Z,2.63
2022-08-30T11:26:56.797Z,2.65
2022-08-30T11:29:42.774Z,2.55
2022-08-30T11:32:45.077Z,2.40
2022-08-30T11:35:35.478Z,2.53
2022-08-30T11:38:13.467Z,2.67
2022-08-30T11:40:47.545Z,2.53
2022-08-30T11:43:39.636Z,2.47
2022-08-30T11:46:19.553Z,2.50
2022-08-30T11:48:54.056Z,2.70
2022-08-30T11:51:46.670Z,2.65
2022-08-30T11:54:31.351Z,2.63
2022-08-30T11:57:05.966Z,2.42
2022-08-30T11:59:46.232Z,2.35
2022-08-30T12:02:43.604Z,3.00
2022-08-30T12:05:44.709Z,2.28
2022-08-30T12:08:44.735Z,2.65
2022-08-30T12:11:39.652Z,2.60
2022-08-30T12:14:09.363Z,2.65
2022-08-30T12:16:41.913Z,2.65
2022-08-30T12:19:16.937Z,2.60
2022-08-30T12:21:54.799Z,2.53
2022-08-30T12:24:25.341Z,2.88
2022-08-30T12:26:53.413Z,2.67
2022-08-30T12:29:24.480Z,2.78
2022-08-30T12:31:53.715Z,2.72
2022-08-30T12:34:25.529Z,2.63
2022-08-30T12:36:57.342Z,2.40
2022-08-30T12:39:28.049Z,2.88
2022-08-30T12:41:56.061Z,2.50
2022-08-30T12:44:26.242Z,2.65
2022-08-30T12:46:59.553Z,2.80
2022-08-30T12:49:29.950Z,2.60
2022-08-30T12:52:14.727Z,2.72
2022-08-30T12:54:41.435Z,2.63
2022-08-30T12:57:32.086Z,2.80
2022-08-30T13:00:01.642Z,2.40
2022-08-30T13:02:43.571Z,2.67
2022-08-30T13:05:33.856Z,2.38
2022-08-30T13:08:18.476Z,2.88
2022-08-30T13:10:51.190Z,2.75
2022-08-30T13:13:30.529Z,2.50
2022-08-30T13:16:09.570Z,2.58
2022-08-30T13:18:36.130Z,2.50
2022-08-30T13:21:20.283Z,2.60
2022-08-30T13:26:13.744Z,2.60
2022-08-30T13:28:49.338Z,2.75
2022-08-30T13:31:17.665Z,2.95
2022-08-30T13:33:44.392Z,2.53
2022-08-30T13:36:11.571Z,2.92
2022-08-30T13:38:38.274Z,2.60
2022-08-30T13:41:04.935Z,2.92
2022-08-30T13:43:31.688Z,2.60
2022-08-30T13:46:21.205Z,2.67
2022-08-30T13:48:47.841Z,3.22
2022-08-30T13:51:14.502Z,2.47
2022-08-30T13:53:56.749Z,2.90
2022-08-30T13:56:24.895Z,2.80
2022-08-30T13:58:51.704Z,2.70
2022-08-30T14:01:20.764Z,2.67
2022-08-30T14:04:17.221Z,2.65
2022-08-30T14:06:34.809Z,2.95
2022-08-30T14:09:04.418Z,2.90
2022-08-30T14:11:31.433Z,2.60
2022-08-30T14:16:46.052Z,2.60
2022-08-30T14:19:14.497Z,2.53
2022-08-30T14:21:41.289Z,2.70
2022-08-30T14:24:08.361Z,2.60
2022-08-30T14:26:37.962Z,2.45
2022-08-30T14:29:09.101Z,2.75
2022-08-30T14:31:36.433Z,2.97
2022-08-30T14:34:05.877Z,2.72
2022-08-30T14:36:34.426Z,2.60
2022-08-30T14:39:01.030Z,2.67
2022-08-30T14:41:28.009Z,2.58
2022-08-30T14:43:54.603Z,2.40
2022-08-30T14:46:21.279Z,2.58
2022-08-30T14:48:48.376Z,2.40
2022-08-30T14:51:21.150Z,2.53
2022-08-30T14:53:50.909Z,2.70
2022-08-30T14:56:19.775Z,2.63
2022-08-30T14:58:48.442Z,2.60
2022-08-30T15:01:15.041Z,2.63
2022-08-30T15:03:43.322Z,2.67
2022-08-30T15:06:11.147Z,2.70
2022-08-30T15:08:39.947Z,2.50
2022-08-30T15:11:08.110Z,2.35
2022-08-30T15:13:34.729Z,2.47
2022-08-30T15:16:01.353Z,2.55
2022-08-30T15:18:27.923Z,2.50
2022-08-30T15:20:54.444Z,2.50
2022-08-30T15:23:22.902Z,2.70
2022-08-30T15:25:52.817Z,2.53
2022-08-30T15:28:19.498Z,2.30
2022-08-30T15:30:46.709Z,2.60
2022-08-30T15:33:13.250Z,2.55
2022-08-30T15:35:41.251Z,2.45
2022-08-30T15:38:08.147Z,2.28
2022-08-30T15:40:38.956Z,2.10
2022-08-30T15:43:07.081Z,2.38
2022-08-30T15:45:33.892Z,2.33
2022-08-30T15:48:02.085Z,2.30
2022-08-30T15:50:28.861Z,2.33
2022-08-30T15:52:56.694Z,2.20
2022-08-30T15:55:23.359Z,2.13
2022-08-30T15:57:50.138Z,2.10
2022-08-30T16:00:18.377Z,2.30
2022-08-30T16:02:45.005Z,2.10
2022-08-30T16:05:11.540Z,2.33
2022-08-30T16:07:40.773Z,2.40
2022-08-30T16:10:08.616Z,2.13
2022-08-30T16:12:35.145Z,2.22
2022-08-30T16:15:01.688Z,2.15
2022-08-30T16:17:30.506Z,2.28
2022-08-30T16:19:58.963Z,2.10
2022-08-30T16:22:25.736Z,2.15
2022-08-30T16:24:52.284Z,2.20
2022-08-30T16:27:18.812Z,2.35
2022-08-30T16:29:47.855Z,2.28
2022-08-30T16:32:17.185Z,2.15
2022-08-30T16:34:45.031Z,2.40
2022-08-30T16:37:11.551Z,2.10
2022-08-30T16:39:38.080Z,2.08
2022-08-30T16:42:06.580Z,2.22
2022-08-30T16:44:33.728Z,2.20
2022-08-30T16:47:01.798Z,2.33
2022-08-30T16:49:28.483Z,2.20
2022-08-30T16:51:56.479Z,2.25
2022-08-30T16:54:23.424Z,2.00
2022-08-30T16:56:50.181Z,2.00
2022-08-30T16:59:17.038Z,2.20
2022-08-30T17:01:43.887Z,2.15
2022-08-30T17:04:13.940Z,2.10
2022-08-30T17:06:46.049Z,2.08
2022-08-30T17:09:15.070Z,1.80
2022-08-30T17:11:42.321Z,2.00
2022-08-30T17:14:09.555Z,2.22
2022-08-30T17:16:37.336Z,1.70
2022-08-30T17:19:04.856Z,2.00
2022-08-30T17:21:31.853Z,2.00
2022-08-30T17:24:01.729Z,1.90
2022-08-30T17:26:30.808Z,1.98
2022-08-30T17:28:57.919Z,2.13
2022-08-30T17:31:24.730Z,1.80
2022-08-30T17:33:51.444Z,1.85
2022-08-30T17:36:18.029Z,2.10
2022-08-30T17:38:45.051Z,2.00
2022-08-30T17:41:12.980Z,2.38
2022-08-30T17:43:41.158Z,1.95
2022-08-30T17:46:10.047Z,2.05
2022-08-30T17:48:37.287Z,2.00
2022-08-30T17:51:04.765Z,1.98
2022-08-30T17:53:31.724Z,1.95
2022-08-30T17:55:58.950Z,1.60
2022-08-30T17:58:26.706Z,1.90
2022-08-30T18:01:04.567Z,1.70
2022-08-30T18:03:38.307Z,2.22
2022-08-30T18:06:05.321Z,1.92
2022-08-30T18:08:32.543Z,1.90
2022-08-30T18:10:59.101Z,1.90
2022-08-30T18:13:25.680Z,1.92
2022-08-30T18:15:52.213Z,1.70
2022-08-30T18:18:20.150Z,1.60
2022-08-30T18:20:46.790Z,1.83
2022-08-30T18:23:14.224Z,1.67
2022-08-30T18:25:42.263Z,1.70
2022-08-30T18:28:09.488Z,1.92
2022-08-30T18:30:42.359Z,1.80
2022-08-30T18:33:08.980Z,1.85
2022-08-30T18:35:37.001Z,1.80
2022-08-30T18:38:04.217Z,2.13
2022-08-30T18:40:30.818Z,1.92
2022-08-30T18:42:57.376Z,1.77
2022-08-30T18:45:23.908Z,1.70
2022-08-30T18:47:50.438Z,1.70
2022-08-30T18:50:17.240Z,1.98
2022-08-30T18:52:45.273Z,1.90
2022-08-30T18:55:11.974Z,1.77
2022-08-30T18:57:38.787Z,1.80
2022-08-30T19:00:06.644Z,1.92
2022-08-30T19:02:33.186Z,1.70
2022-08-30T19:04:59.716Z,1.73
2022-08-30T19:07:29.944Z,1.52
2022-08-30T19:12:29.726Z,1.70
2022-08-30T19:14:56.387Z,1.83
2022-08-30T19:17:22.948Z,1.80
2022-08-30T19:19:52.372Z,1.70
2022-08-30T19:22:20.905Z,1.92
2022-08-30T19:24:47.493Z,1.88
2022-08-30T19:27:15.735Z,1.90
2022-08-30T19:29:42.433Z,2.15
2022-08-30T19:32:11.304Z,1.95
2022-08-30T19:34:39.778Z,1.95
2022-08-30T19:37:06.526Z,2.10
2022-08-30T19:39:33.080Z,2.17
2022-08-30T19:41:59.611Z,1.88
2022-08-30T19:44:28.146Z,2.20
2022-08-30T19:46:54.653Z,2.15
2022-08-30T19:49:22.752Z,2.00
2022-08-30T19:51:49.283Z,1.98
2022-08-30T19:54:15.939Z,1.75
2022-08-30T19:56:43.998Z,2.13
2022-08-30T19:59:10.596Z,1.95
2022-08-30T20:01:38.674Z,2.15
2022-08-30T20:04:05.393Z,1.80
2022-08-30T20:06:32.648Z,1.83
2022-08-30T20:09:00.342Z,1.70
2022-08-30T20:11:28.228Z,1.90
2022-08-30T20:13:55.167Z,1.90
2022-08-30T20:16:22.304Z,1.60
2022-08-30T20:19:08.262Z,2.22
2022-08-30T20:21:35.457Z,1.98
2022-08-30T20:24:03.250Z,1.77
2022-08-30T20:26:33.690Z,2.10
2022-08-30T20:29:01.137Z,1.98
2022-08-30T20:31:27.812Z,1.73
2022-08-30T20:33:54.512Z,1.98
2022-08-30T20:36:22.476Z,1.98
2022-08-30T20:38:49.015Z,2.10
2022-08-30T20:41:17.370Z,1.75
2022-08-30T20:43:44.677Z,1.70
2022-08-30T20:46:13.973Z,1.83
2022-08-30T20:48:41.621Z,1.58
2022-08-30T20:51:10.474Z,1.90
2022-08-30T20:53:38.724Z,2.25
2022-08-30T20:56:05.748Z,1.92
2022-08-30T20:58:32.297Z,1.70
2022-08-30T21:00:58.997Z,1.88
2022-08-30T21:03:28.022Z,2.20
2022-08-30T21:05:55.972Z,1.65
2022-08-30T21:08:22.739Z,1.75
2022-08-30T21:10:52.103Z,2.00
2022-08-30T21:13:18.757Z,1.90
2022-08-30T21:15:45.387Z,2.00
2022-08-30T21:18:12.337Z,1.85
2022-08-30T21:20:39.280Z,1.60
2022-08-30T21:23:05.805Z,1.90
2022-08-30T21:25:32.424Z,1.58
2022-08-30T21:28:00.240Z,1.55
2022-08-30T21:30:26.852Z,1.80
2022-08-30T21:32:53.379Z,1.83
2022-08-30T21:35:19.970Z,1.75
2022-08-30T21:37:46.634Z,2.10
2022-08-30T21:40:13.352Z,1.95
2022-08-30T21:42:41.563Z,2.20
2022-08-30T21:45:10.196Z,2.00
2022-08-30T21:47:36.685Z,1.80
2022-08-30T21:50:03.658Z,1.80
2022-08-30T21:52:30.647Z,2.00
2022-08-30T21:54:57.130Z,1.85
2022-08-30T21:57:23.651Z,1.73
2022-08-30T21:59:50.196Z,1.60
2022-08-30T22:02:18.224Z,2.03
2022-08-30T22:04:44.970Z,1.83
2022-08-30T22:07:11.538Z,1.80
2022-08-30T22:09:38.260Z,1.90
2022-08-30T22:12:06.956Z,1.90
2022-08-30T22:14:35.130Z,2.00
2022-08-30T22:17:01.929Z,2.03
2022-08-30T22:19:33.500Z,2.03
2022-08-30T22:22:01.742Z,2.03
2022-08-30T22:24:29.133Z,2.03
2022-08-30T22:26:58.838Z,1.58
2022-08-30T22:29:25.411Z,1.63
2022-08-30T22:31:52.196Z,1.95
2022-08-30T22:34:18.948Z,1.50
2022-08-30T22:36:46.838Z,1.98
2022-08-30T22:39:13.399Z,1.60
2022-08-30T22:41:40.343Z,1.52
2022-08-30T22:44:07.150Z,2.20
2022-08-30T22:46:35.304Z,1.70
2022-08-30T22:49:01.868Z,1.88
2022-08-30T22:51:28.446Z,1.70
2022-08-30T22:53:56.652Z,1.83
2022-08-30T22:56:25.223Z,2.10
2022-08-30T22:58:52.906Z,1.80
2022-08-30T23:01:22.510Z,1.75
2022-08-30T23:03:49.622Z,1.67
2022-08-30T23:06:16.453Z,1.90
2022-08-30T23:08:43.024Z,1.73
2022-08-30T23:11:11.156Z,1.63
2022-08-30T23:13:38.201Z,1.80
2022-08-30T23:16:06.521Z,1.63
2022-08-30T23:18:34.542Z,1.70
2022-08-30T23:21:06.842Z,1.75
2022-08-30T23:23:37.635Z,1.60
2022-08-30T23:26:04.267Z,1.60
2022-08-30T23:28:32.078Z,1.40
2022-08-30T23:31:08.897Z,1.60
2022-08-30T23:33:35.422Z,1.80
2022-08-30T23:36:06.901Z,1.45
2022-08-30T23:38:33.571Z,2.05
2022-08-30T23:41:00.089Z,1.67
2022-08-30T23:43:26.596Z,1.60
2022-08-30T23:45:55.158Z,1.63
2022-08-30T23:48:22.128Z,1.80
2022-08-30T23:50:48.623Z,1.58
2022-08-30T23:53:15.270Z,1.85
2022-08-30T23:55:41.774Z,1.80
2022-08-30T23:58:08.372Z,1.58
